METAR Data
IDs: Format: Raw Decoded Include TAF

Data at: 1409 UTC 14 Apr 2021

KOXC 141351Z 00000KT 10SM CLR 14/07 A3005 RMK AO2 SLP187 T01440072
KOXC 141251Z 00000KT 10SM CLR 11/07 A3006 RMK AO2 SLP192 T01110067
KOXC 141151Z 00000KT 10SM FEW080 08/06 A3007 RMK AO2 SLP196 T00780061 10078 20056 53004
KOXC 141051Z COR 00000KT 10SM FEW075 06/06 A3006 RMK AO2 SLP195 T00560056
KOXC 140951Z 00000KT 10SM BKN075 07/06 A3005 RMK AO2 SLP188 T00670056
KOXC 140851Z AUTO 26004KT 10SM CLR 07/05 A3005 RMK AO2 SLP191 T00720050 55003
KOXC 140751Z AUTO 27003KT 10SM OVC075 07/06 A3005 RMK AO2 SLP190 T00720056
KOXC 140651Z AUTO 22003KT 10SM OVC075 08/06 A3005 RMK AO2 SLP190 T00780056
KOXC 140551Z AUTO 25006KT 10SM OVC075 08/06 A3006 RMK AO2 SLP194 T00780056 10117 20072 58006
KOXC 140451Z AUTO 21004KT 10SM OVC070 08/06 A3007 RMK AO2 SLP197 T00780056 401670017
KOXC 140351Z AUTO 17003KT 10SM OVC055 08/06 A3008 RMK AO2 SLP200 T00780056
KOXC 140251Z AUTO 19004KT 10SM BKN055 08/05 A3008 RMK AO2 SLP199 T00780050 51013
KOXC 140151Z AUTO 19006KT 10SM BKN065 08/05 A3007 RMK AO2 SLP195 T00830050
KOXC 140051Z 17006KT 10SM OVC060 09/06 A3006 RMK AO2 SLP191 T00940056
KOXC 132351Z 17008KT 10SM OVC055 12/06 A3004 RMK AO2 SLP186 T01220061 10167 20122 53014
KOXC 132251Z 13009KT 10SM OVC050 14/06 A3003 RMK AO2 SLP183 T01440061
KOXC 132151Z 35003KT 10SM OVC055 16/07 A3001 RMK AO2 SLP176 T01610067
KOXC 132051Z 30005KT 10SM OVC050 16/06 A3000 RMK AO2 SLP174 T01610056 55006
KOXC 131951Z 09003KT 10SM BKN050 16/06 A2999 RMK AO2 SLP170 T01610061
KOXC 131851Z 36005KT 10SM OVC050 16/06 A3000 RMK AO2 SLP175 T01560056
KOXC 131751Z 06010KT 10SM BKN048 16/06 A3002 RMK AO2 SLP178 T01560061 10156 20067 56008
KOXC 131651Z VRB03KT 10SM OVC040 14/04 A3002 RMK AO2 SLP179 T01390044
KOXC 131551Z 36006KT 10SM BKN036 13/05 A3003 RMK AO2 SLP182 T01280050
KOXC 131451Z 02008KT 10SM BKN030 11/06 A3004 RMK AO2 SLP186 T01110056 51003
KOXC 131446Z 02011G17KT 10SM BKN030 11/06 A3004 RMK AO2
KOXC 131351Z 36008KT 10SM OVC026 09/05 A3004 RMK AO2 SLP188 T00890050
KOXC 131251Z 35010KT 10SM OVC026 08/04 A3003 RMK AO2 SLP185 T00780039
KOXC 131151Z 35005KT 10SM OVC029 07/02 A3003 RMK AO2 SLP183 70008 T00670022 10067 20017 51015
KOXC 131051Z 01006KT 10SM BKN027 OVC032 05/02 A3002 RMK AO2 SLP183 T00500022
KOXC 130951Z 01006KT 10SM OVC038 04/02 A3000 RMK AO2 SLP174 T00440022
KOXC 130851Z AUTO 01007KT 10SM BKN040 04/03 A2998 RMK AO2 SLP168 T00390028 53006
KOXC 130751Z AUTO 36006KT 10SM CLR 02/02 A2997 RMK AO2 SLP166 T00220022 FZRANO
KOXC 130651Z AUTO 02006KT 10SM CLR 04/03 A2997 RMK AO2 SLP163 T00390033
KOXC 130551Z AUTO 02006KT 10SM CLR 03/02 A2996 RMK AO2 SLP162 T00330022 10078 20033 50004
KOXC 130451Z AUTO 05004KT 10SM CLR 05/02 A2997 RMK AO2 SLP164 T00500022 400940050
KOXC 130440Z AUTO 04006KT 10SM SCT026 SCT060 05/02 A2997 RMK AO2
KOXC 130407Z AUTO 06008KT 10SM BKN026 OVC060 06/03 A2997 RMK AO2
KOXC 130351Z AUTO 07007KT 10SM BKN055 06/03 A2996 RMK AO2 SLP162 T00560028
KOXC 130332Z AUTO 06007KT 10SM SCT028 BKN055 06/03 A2996 RMK AO2
KOXC 130251Z AUTO 03011G14KT 10SM BKN028 OVC047 07/03 A2995 RMK AO2 SLP156 T00670033 51021
KOXC 130241Z AUTO 05006KT 10SM BKN028 OVC047 07/04 A2995 RMK AO2